sensor_id;sensor_type;location;lat;lon;timestamp;pressure;altitude;pressure_sealevel;temperature;humidity
55044;BME280;54902;50.420;18.854;2024-02-16T00:00:07;101818.60;;;9.26;77.62
55044;BME280;54902;50.420;18.854;2024-02-16T00:00:38;101806.73;;;9.27;77.63
55044;BME280;54902;50.420;18.854;2024-02-16T00:01:10;101805.84;;;9.26;77.63
55044;BME280;54902;50.420;18.854;2024-02-16T00:01:41;101813.05;;;9.27;77.61
55044;BME280;54902;50.420;18.854;2024-02-16T00:02:12;101810.33;;;9.27;77.60
55044;BME280;54902;50.420;18.854;2024-02-16T00:02:43;101812.09;;;9.28;77.58
55044;BME280;54902;50.420;18.854;2024-02-16T00:03:14;101806.63;;;9.28;77.61
55044;BME280;54902;50.420;18.854;2024-02-16T00:03:46;101811.09;;;9.29;77.59
55044;BME280;54902;50.420;18.854;2024-02-16T00:04:17;101812.09;;;9.28;77.60
55044;BME280;54902;50.420;18.854;2024-02-16T00:04:48;101811.09;;;9.29;77.61
55044;BME280;54902;50.420;18.854;2024-02-16T00:05:19;101803.91;;;9.28;77.59
55044;BME280;54902;50.420;18.854;2024-02-16T00:05:50;101807.40;;;9.30;77.62
55044;BME280;54902;50.420;18.854;2024-02-16T00:06:22;101808.30;;;9.30;77.63
55044;BME280;54902;50.420;18.854;2024-02-16T00:06:53;101812.85;;;9.30;77.61
55044;BME280;54902;50.420;18.854;2024-02-16T00:07:24;101815.47;;;9.31;77.62
55044;BME280;54902;50.420;18.854;2024-02-16T00:07:55;101808.30;;;9.30;77.63
55044;BME280;54902;50.420;18.854;2024-02-16T00:08:27;101810.92;;;9.32;77.64
55044;BME280;54902;50.420;18.854;2024-02-16T00:08:58;101816.38;;;9.32;77.64
55044;BME280;54902;50.420;18.854;2024-02-16T00:09:29;101813.66;;;9.32;77.61
55044;BME280;54902;50.420;18.854;2024-02-16T00:10:00;101805.47;;;9.32;77.62
55044;BME280;54902;50.420;18.854;2024-02-16T00:10:31;101810.83;;;9.33;77.61
55044;BME280;54902;50.420;18.854;2024-02-16T00:11:03;101810.83;;;9.33;77.62
55044;BME280;54902;50.420;18.854;2024-02-16T00:11:34;101813.55;;;9.33;77.63
55044;BME280;54902;50.420;18.854;2024-02-16T00:12:05;101813.46;;;9.35;77.67
55044;BME280;54902;50.420;18.854;2024-02-16T00:12:37;101815.31;;;9.34;77.66
55044;BME280;54902;50.420;18.854;2024-02-16T00:13:10;101808.95;;;9.34;77.66
55044;BME280;54902;50.420;18.854;2024-02-16T00:13:42;101813.46;;;9.35;77.67
55044;BME280;54902;50.420;18.854;2024-02-16T00:14:13;101816.19;;;9.35;77.64
55044;BME280;54902;50.420;18.854;2024-02-16T00:14:44;101817.04;;;9.35;77.63
55044;BME280;54902;50.420;18.854;2024-02-16T00:15:16;101813.46;;;9.35;77.63
55044;BME280;54902;50.420;18.854;2024-02-16T00:15:47;101817.95;;;9.36;77.63
55044;BME280;54902;50.420;18.854;2024-02-16T00:16:18;101813.34;;;9.36;77.66
55044;BME280;54902;50.420;18.854;2024-02-16T00:16:49;101809.76;;;9.36;77.62
55044;BME280;54902;50.420;18.854;2024-02-16T00:17:20;101808.77;;;9.37;77.63
55044;BME280;54902;50.420;18.854;2024-02-16T00:17:53;101812.39;;;9.37;77.63
55044;BME280;54902;50.420;18.854;2024-02-16T00:18:24;101818.70;;;9.38;77.62
55044;BME280;54902;50.420;18.854;2024-02-16T00:18:54;101815.02;;;9.39;77.62
55044;BME280;54902;50.420;18.854;2024-02-16T00:19:25;101809.67;;;9.37;77.62
55044;BME280;54902;50.420;18.854;2024-02-16T00:19:59;101815.88;;;9.39;77.63
55044;BME280;54902;50.420;18.854;2024-02-16T00:20:30;101814.15;;;9.38;77.61
55044;BME280;54902;50.420;18.854;2024-02-16T00:21:02;101813.16;;;9.39;77.60
55044;BME280;54902;50.420;18.854;2024-02-16T00:21:33;101806.82;;;9.39;77.61
55044;BME280;54902;50.420;18.854;2024-02-16T00:22:04;101815.88;;;9.39;77.61
55044;BME280;54902;50.420;18.854;2024-02-16T00:22:38;101808.59;;;9.40;77.60
55044;BME280;54902;50.420;18.854;2024-02-16T00:23:09;101819.41;;;9.41;77.62
55044;BME280;54902;50.420;18.854;2024-02-16T00:23:40;101809.45;;;9.40;77.63
55044;BME280;54902;50.420;18.854;2024-02-16T00:24:11;101816.77;;;9.40;77.62
55044;BME280;54902;50.420;18.854;2024-02-16T00:24:42;101810.36;;;9.41;77.61
55044;BME280;54902;50.420;18.854;2024-02-16T00:25:14;101813.95;;;9.41;77.62
55044;BME280;54902;50.420;18.854;2024-02-16T00:25:46;101815.81;;;9.41;77.60
55044;BME280;54902;50.420;18.854;2024-02-16T00:26:18;101805.77;;;9.41;77.62
55044;BME280;54902;50.420;18.854;2024-02-16T00:26:51;101809.36;;;9.42;77.62
55044;BME280;54902;50.420;18.854;2024-02-16T00:27:22;101806.63;;;9.42;77.63
55044;BME280;54902;50.420;18.854;2024-02-16T00:27:53;101811.21;;;9.41;77.60
55044;BME280;54902;50.420;18.854;2024-02-16T00:28:24;101804.79;;;9.42;77.62
55044;BME280;54902;50.420;18.854;2024-02-16T00:28:55;101803.91;;;9.42;77.60
55044;BME280;54902;50.420;18.854;2024-02-16T00:29:26;101801.07;;;9.43;77.59
55044;BME280;54902;50.420;18.854;2024-02-16T00:29:57;101810.25;;;9.42;77.59
55044;BME280;54902;50.420;18.854;2024-02-16T00:30:28;101807.42;;;9.44;77.59
55044;BME280;54902;50.420;18.854;2024-02-16T00:30:59;101798.34;;;9.43;77.59
55044;BME280;54902;50.420;18.854;2024-02-16T00:31:30;101800.21;;;9.43;77.59
55044;BME280;54902;50.420;18.854;2024-02-16T00:32:01;101799.24;;;9.44;77.57
55044;BME280;54902;50.420;18.854;2024-02-16T00:32:33;101794.76;;;9.43;77.58
55044;BME280;54902;50.420;18.854;2024-02-16T00:33:04;101811.91;;;9.45;77.59
55044;BME280;54902;50.420;18.854;2024-02-16T00:33:35;101793.79;;;9.44;77.59
55044;BME280;54902;50.420;18.854;2024-02-16T00:34:06;101801.97;;;9.44;77.58
55044;BME280;54902;50.420;18.854;2024-02-16T00:34:37;101794.76;;;9.43;77.58
55044;BME280;54902;50.420;18.854;2024-02-16T00:35:08;101801.07;;;9.43;77.57
55044;BME280;54902;50.420;18.854;2024-02-16T00:35:39;101802.94;;;9.43;77.57
55044;BME280;54902;50.420;18.854;2024-02-16T00:36:10;101798.34;;;9.43;77.56
55044;BME280;54902;50.420;18.854;2024-02-16T00:36:41;101797.48;;;9.43;77.55
55044;BME280;54902;50.420;18.854;2024-02-16T00:37:12;101797.48;;;9.43;77.55
55044;BME280;54902;50.420;18.854;2024-02-16T00:37:43;101802.94;;;9.43;77.55
55044;BME280;54902;50.420;18.854;2024-02-16T00:38:14;101800.21;;;9.43;77.54
55044;BME280;54902;50.420;18.854;2024-02-16T00:38:45;101790.27;;;9.42;77.53
55044;BME280;54902;50.420;18.854;2024-02-16T00:39:17;101802.94;;;9.43;77.53
55044;BME280;54902;50.420;18.854;2024-02-16T00:39:48;101797.48;;;9.43;77.52
55044;BME280;54902;50.420;18.854;2024-02-16T00:40:19;101798.45;;;9.42;77.52
55044;BME280;54902;50.420;18.854;2024-02-16T00:40:50;101792.03;;;9.43;77.52
55044;BME280;54902;50.420;18.854;2024-02-16T00:41:22;101790.27;;;9.42;77.54
55044;BME280;54902;50.420;18.854;2024-02-16T00:41:54;101793.99;;;9.41;77.53
55044;BME280;54902;50.420;18.854;2024-02-16T00:42:25;101796.72;;;9.41;77.52
55044;BME280;54902;50.420;18.854;2024-02-16T00:43:01;101796.72;;;9.41;77.51
55044;BME280;54902;50.420;18.854;2024-02-16T00:43:32;101793.99;;;9.41;77.51
55044;BME280;54902;50.420;18.854;2024-02-16T00:44:03;101784.92;;;9.40;77.51
55044;BME280;54902;50.420;18.854;2024-02-16T00:44:34;101792.23;;;9.40;77.50
55044;BME280;54902;50.420;18.854;2024-02-16T00:45:05;101793.09;;;9.40;77.51
55044;BME280;54902;50.420;18.854;2024-02-16T00:45:37;101795.92;;;9.39;77.50
55044;BME280;54902;50.420;18.854;2024-02-16T00:46:08;101788.60;;;9.39;77.49
55044;BME280;54902;50.420;18.854;2024-02-16T00:46:39;101790.47;;;9.39;77.49
55044;BME280;54902;50.420;18.854;2024-02-16T00:47:11;101790.47;;;9.39;77.48
55044;BME280;54902;50.420;18.854;2024-02-16T00:47:42;101793.20;;;9.39;77.50
55044;BME280;54902;50.420;18.854;2024-02-16T00:48:16;101793.20;;;9.39;77.49
55044;BME280;54902;50.420;18.854;2024-02-16T00:48:47;101793.29;;;9.37;77.51
55044;BME280;54902;50.420;18.854;2024-02-16T00:49:18;101796.89;;;9.38;77.50
55044;BME280;54902;50.420;18.854;2024-02-16T00:49:49;101801.58;;;9.36;77.49
55044;BME280;54902;50.420;18.854;2024-02-16T00:50:20;101791.53;;;9.36;77.51
55044;BME280;54902;50.420;18.854;2024-02-16T00:50:51;101799.71;;;9.36;77.52
55044;BME280;54902;50.420;18.854;2024-02-16T00:51:22;101795.23;;;9.35;77.50
55044;BME280;54902;50.420;18.854;2024-02-16T00:51:56;101793.40;;;9.36;77.50
55044;BME280;54902;50.420;18.854;2024-02-16T00:52:27;101798.84;;;9.36;77.50
55044;BME280;54902;50.420;18.854;2024-02-16T00:52:58;101794.36;;;9.35;77.50
55044;BME280;54902;50.420;18.854;2024-02-16T00:53:30;101798.95;;;9.34;77.50
55044;BME280;54902;50.420;18.854;2024-02-16T00:54:01;101787.15;;;9.34;77.51
55044;BME280;54902;50.420;18.854;2024-02-16T00:54:33;101793.50;;;9.34;77.51
55044;BME280;54902;50.420;18.854;2024-02-16T00:55:05;101794.36;;;9.35;77.51
55044;BME280;54902;50.420;18.854;2024-02-16T00:55:36;101786.28;;;9.33;77.52
55044;BME280;54902;50.420;18.854;2024-02-16T00:56:08;101789.87;;;9.34;77.50
55044;BME280;54902;50.420;18.854;2024-02-16T00:56:39;101792.59;;;9.34;77.52
55044;BME280;54902;50.420;18.854;2024-02-16T00:57:10;101795.33;;;9.34;77.51
55044;BME280;54902;50.420;18.854;2024-02-16T00:57:41;101792.70;;;9.32;77.53
55044;BME280;54902;50.420;18.854;2024-02-16T00:58:12;101790.84;;;9.33;77.55
55044;BME280;54902;50.420;18.854;2024-02-16T00:58:43;101794.56;;;9.32;77.52
55044;BME280;54902;50.420;18.854;2024-02-16T00:59:14;101796.29;;;9.33;77.53
55044;BME280;54902;50.420;18.854;2024-02-16T00:59:45;101793.57;;;9.33;77.53
55044;BME280;54902;50.420;18.854;2024-02-16T01:00:16;101786.38;;;9.32;77.51
55044;BME280;54902;50.420;18.854;2024-02-16T01:00:48;101789.11;;;9.32;77.51
55044;BME280;54902;50.420;18.854;2024-02-16T01:01:19;101788.21;;;9.31;77.51
55044;BME280;54902;50.420;18.854;2024-02-16T01:01:53;101788.21;;;9.31;77.53
55044;BME280;54902;50.420;18.854;2024-02-16T01:02:24;101788.21;;;9.31;77.54
55044;BME280;54902;50.420;18.854;2024-02-16T01:02:55;101781.90;;;9.31;77.53
55044;BME280;54902;50.420;18.854;2024-02-16T01:03:26;101782.85;;;9.30;77.54
55044;BME280;54902;50.420;18.854;2024-02-16T01:03:57;101792.80;;;9.31;77.55
55044;BME280;54902;50.420;18.854;2024-02-16T01:04:28;101787.35;;;9.31;77.54
55044;BME280;54902;50.420;18.854;2024-02-16T01:05:00;101789.21;;;9.30;77.54
55044;BME280;54902;50.420;18.854;2024-02-16T01:05:32;101780.13;;;9.30;77.54
55044;BME280;54902;50.420;18.854;2024-02-16T01:06:05;101780.13;;;9.30;77.53
55044;BME280;54902;50.420;18.854;2024-02-16T01:06:36;101775.57;;;9.30;77.54
55044;BME280;54902;50.420;18.854;2024-02-16T01:07:07;101780.13;;;9.30;77.53
55044;BME280;54902;50.420;18.854;2024-02-16T01:07:38;101780.13;;;9.30;77.54
55044;BME280;54902;50.420;18.854;2024-02-16T01:08:12;101785.58;;;9.30;77.54
55044;BME280;54902;50.420;18.854;2024-02-16T01:08:43;101785.58;;;9.30;77.53
55044;BME280;54902;50.420;18.854;2024-02-16T01:09:15;101785.58;;;9.30;77.53
55044;BME280;54902;50.420;18.854;2024-02-16T01:09:46;101783.82;;;9.29;77.54
55044;BME280;54902;50.420;18.854;2024-02-16T01:10:19;101784.73;;;9.29;77.53
55044;BME280;54902;50.420;18.854;2024-02-16T01:10:50;101786.55;;;9.29;77.53
55044;BME280;54902;50.420;18.854;2024-02-16T01:11:21;101789.27;;;9.29;77.55
55044;BME280;54902;50.420;18.854;2024-02-16T01:11:53;101782.97;;;9.28;77.54
55044;BME280;54902;50.420;18.854;2024-02-16T01:12:23;101783.82;;;9.29;77.56
55044;BME280;54902;50.420;18.854;2024-02-16T01:12:54;101790.27;;;9.28;77.54
55044;BME280;54902;50.420;18.854;2024-02-16T01:13:26;101786.65;;;9.27;77.54
55044;BME280;54902;50.420;18.854;2024-02-16T01:13:57;101783.91;;;9.27;77.54
55044;BME280;54902;50.420;18.854;2024-02-16T01:14:28;101785.79;;;9.27;77.54
55044;BME280;54902;50.420;18.854;2024-02-16T01:14:59;101784.02;;;9.26;77.54
55044;BME280;54902;50.420;18.854;2024-02-16T01:15:31;101777.61;;;9.27;77.54
55044;BME280;54902;50.420;18.854;2024-02-16T01:16:05;101787.65;;;9.27;77.53
55044;BME280;54902;50.420;18.854;2024-02-16T01:16:36;101786.76;;;9.26;77.52
55044;BME280;54902;50.420;18.854;2024-02-16T01:17:07;101789.48;;;9.26;77.51
55044;BME280;54902;50.420;18.854;2024-02-16T01:17:39;101786.76;;;9.26;77.51
55044;BME280;54902;50.420;18.854;2024-02-16T01:18:10;101782.26;;;9.25;77.50
55044;BME280;54902;50.420;18.854;2024-02-16T01:18:42;101782.26;;;9.25;77.50
55044;BME280;54902;50.420;18.854;2024-02-16T01:19:13;101788.61;;;9.26;77.51
55044;BME280;54902;50.420;18.854;2024-02-16T01:19:44;101786.85;;;9.25;77.49
55044;BME280;54902;50.420;18.854;2024-02-16T01:20:15;101785.98;;;9.24;77.48
55044;BME280;54902;50.420;18.854;2024-02-16T01:20:46;101779.63;;;9.24;77.48
55044;BME280;54902;50.420;18.854;2024-02-16T01:21:17;101789.68;;;9.23;77.46
55044;BME280;54902;50.420;18.854;2024-02-16T01:21:48;101784.22;;;9.23;77.48
55044;BME280;54902;50.420;18.854;2024-02-16T01:22:27;101790.64;;;9.22;77.46
55044;BME280;54902;50.420;18.854;2024-02-16T01:23:01;101784.42;;;9.20;77.45
55044;BME280;54902;50.420;18.854;2024-02-16T01:23:31;101793.47;;;9.21;77.45
55044;BME280;54902;50.420;18.854;2024-02-16T01:24:03;101790.74;;;9.21;77.44
55044;BME280;54902;50.420;18.854;2024-02-16T01:24:34;101790.84;;;9.19;77.43
55044;BME280;54902;50.420;18.854;2024-02-16T01:25:06;101790.84;;;9.19;77.43
55044;BME280;54902;50.420;18.854;2024-02-16T01:25:38;101794.53;;;9.18;77.41
55044;BME280;54902;50.420;18.854;2024-02-16T01:26:09;101790.05;;;9.17;77.40
55044;BME280;54902;50.420;18.854;2024-02-16T01:26:40;101790.14;;;9.16;77.38
55044;BME280;54902;50.420;18.854;2024-02-16T01:27:11;101786.55;;;9.15;77.38
55044;BME280;54902;50.420;18.854;2024-02-16T01:27:42;101791.11;;;9.15;77.42
55044;BME280;54902;50.420;18.854;2024-02-16T01:28:14;101791.21;;;9.13;77.37
55044;BME280;54902;50.420;18.854;2024-02-16T01:28:45;101788.48;;;9.13;77.37
55044;BME280;54902;50.420;18.854;2024-02-16T01:29:16;101784.00;;;9.12;77.38
55044;BME280;54902;50.420;18.854;2024-02-16T01:29:47;101795.90;;;9.11;77.37
55044;BME280;54902;50.420;18.854;2024-02-16T01:30:18;101787.73;;;9.11;77.37
55044;BME280;54902;50.420;18.854;2024-02-16T01:30:51;101783.33;;;9.09;77.36
55044;BME280;54902;50.420;18.854;2024-02-16T01:31:22;101787.88;;;9.08;77.36
55044;BME280;54902;50.420;18.854;2024-02-16T01:31:53;101790.61;;;9.08;77.36
55044;BME280;54902;50.420;18.854;2024-02-16T01:32:24;101787.98;;;9.07;77.37
55044;BME280;54902;50.420;18.854;2024-02-16T01:32:55;101781.66;;;9.06;77.35
55044;BME280;54902;50.420;18.854;2024-02-16T01:33:26;101788.08;;;9.05;77.35
55044;BME280;54902;50.420;18.854;2024-02-16T01:33:57;101783.59;;;9.04;77.35
55044;BME280;54902;50.420;18.854;2024-02-16T01:34:28;101782.72;;;9.04;77.36
55044;BME280;54902;50.420;18.854;2024-02-16T01:35:02;101780.10;;;9.02;77.36
55044;BME280;54902;50.420;18.854;2024-02-16T01:35:33;101778.34;;;9.01;77.36
55044;BME280;54902;50.420;18.854;2024-02-16T01:36:05;101780.20;;;9.01;77.35
55044;BME280;54902;50.420;18.854;2024-02-16T01:36:36;101776.58;;;9.00;77.35
55044;BME280;54902;50.420;18.854;2024-02-16T01:37:07;101779.40;;;8.99;77.36
55044;BME280;54902;50.420;18.854;2024-02-16T01:37:38;101777.58;;;8.99;77.35
55044;BME280;54902;50.420;18.854;2024-02-16T01:38:11;101776.77;;;8.97;77.35
55044;BME280;54902;50.420;18.854;2024-02-16T01:38:42;101774.05;;;8.97;77.37
55044;BME280;54902;50.420;18.854;2024-02-16T01:39:13;101772.28;;;8.96;77.35
55044;BME280;54902;50.420;18.854;2024-02-16T01:39:44;101778.73;;;8.95;77.35
55044;BME280;54902;50.420;18.854;2024-02-16T01:40:16;101779.70;;;8.94;77.34
55044;BME280;54902;50.420;18.854;2024-02-16T01:40:48;101771.52;;;8.94;77.34
55044;BME280;54902;50.420;18.854;2024-02-16T01:41:19;101772.48;;;8.93;77.35
55044;BME280;54902;50.420;18.854;2024-02-16T01:41:50;101774.34;;;8.93;77.35
55044;BME280;54902;50.420;18.854;2024-02-16T01:42:21;101768.99;;;8.91;77.37
55044;BME280;54902;50.420;18.854;2024-02-16T01:42:52;101770.82;;;8.91;77.35
55044;BME280;54902;50.420;18.854;2024-02-16T01:43:23;101775.41;;;8.90;77.34
55044;BME280;54902;50.420;18.854;2024-02-16T01:43:54;101776.37;;;8.89;77.35
55044;BME280;54902;50.420;18.854;2024-02-16T01:44:25;101775.52;;;8.89;77.33
55044;BME280;54902;50.420;18.854;2024-02-16T01:44:56;101781.91;;;8.88;77.33
55044;BME280;54902;50.420;18.854;2024-02-16T01:45:27;101779.30;;;8.86;77.33
55044;BME280;54902;50.420;18.854;2024-02-16T01:45:58;101776.57;;;8.86;77.33
55044;BME280;54902;50.420;18.854;2024-02-16T01:46:31;101777.52;;;8.85;77.34
55044;BME280;54902;50.420;18.854;2024-02-16T01:47:04;101777.52;;;8.85;77.33
55044;BME280;54902;50.420;18.854;2024-02-16T01:47:36;101773.14;;;8.83;77.32
55044;BME280;54902;50.420;18.854;2024-02-16T01:48:09;101778.69;;;8.81;77.31
55044;BME280;54902;50.420;18.854;2024-02-16T01:48:40;101779.65;;;8.80;77.32
55044;BME280;54902;50.420;18.854;2024-02-16T01:49:12;101777.88;;;8.79;77.33
55044;BME280;54902;50.420;18.854;2024-02-16T01:49:45;101780.61;;;8.79;77.31
55044;BME280;54902;50.420;18.854;2024-02-16T01:50:18;101776.16;;;8.78;77.33
55044;BME280;54902;50.420;18.854;2024-02-16T01:50:49;101769.91;;;8.76;77.30
55044;BME280;54902;50.420;18.854;2024-02-16T01:51:23;101776.32;;;8.75;77.30
55044;BME280;54902;50.420;18.854;2024-02-16T01:51:57;101763.76;;;8.73;77.31
55044;BME280;54902;50.420;18.854;2024-02-16T01:52:28;101777.32;;;8.74;77.30
55044;BME280;54902;50.420;18.854;2024-02-16T01:53:01;101770.20;;;8.72;77.28
55044;BME280;54902;50.420;18.854;2024-02-16T01:53:32;101765.81;;;8.69;77.29
55044;BME280;54902;50.420;18.854;2024-02-16T01:54:04;101763.09;;;8.69;77.29
55044;BME280;54902;50.420;18.854;2024-02-16T01:54:35;101769.50;;;8.68;77.29
55044;BME280;54902;50.420;18.854;2024-02-16T01:55:06;101767.73;;;8.68;77.26
55044;BME280;54902;50.420;18.854;2024-02-16T01:55:40;101763.28;;;8.67;77.27
55044;BME280;54902;50.420;18.854;2024-02-16T01:56:12;101763.35;;;8.65;77.26
55044;BME280;54902;50.420;18.854;2024-02-16T01:56:43;101767.93;;;8.65;77.27
55044;BME280;54902;50.420;18.854;2024-02-16T01:57:14;101763.54;;;8.62;77.28
55044;BME280;54902;50.420;18.854;2024-02-16T01:57:47;101762.68;;;8.62;77.24
55044;BME280;54902;50.420;18.854;2024-02-16T01:58:18;101762.77;;;8.60;77.24
55044;BME280;54902;50.420;18.854;2024-02-16T01:58:49;101767.42;;;8.58;77.27
55044;BME280;54902;50.420;18.854;2024-02-16T01:59:20;101758.39;;;8.58;77.24
55044;BME280;54902;50.420;18.854;2024-02-16T01:59:51;101767.52;;;8.57;77.25
55044;BME280;54902;50.420;18.854;2024-02-16T02:00:24;101757.69;;;8.54;77.24
55044;BME280;54902;50.420;18.854;2024-02-16T02:00:55;101769.53;;;8.53;77.25
55044;BME280;54902;50.420;18.854;2024-02-16T02:01:26;101760.51;;;8.53;77.26
55044;BME280;54902;50.420;18.854;2024-02-16T02:01:57;101761.45;;;8.52;77.25
55044;BME280;54902;50.420;18.854;2024-02-16T02:02:28;101767.01;;;8.50;77.27
55044;BME280;54902;50.420;18.854;2024-02-16T02:02:59;101767.11;;;8.49;77.25
55044;BME280;54902;50.420;18.854;2024-02-16T02:03:30;101769.83;;;8.49;77.25
55044;BME280;54902;50.420;18.854;2024-02-16T02:04:01;101769.92;;;8.47;77.25
55044;BME280;54902;50.420;18.854;2024-02-16T02:04:32;101766.39;;;8.45;77.25
55044;BME280;54902;50.420;18.854;2024-02-16T02:05:04;101767.36;;;8.44;77.25
55044;BME280;54902;50.420;18.854;2024-02-16T02:05:44;101771.08;;;8.43;77.25
55044;BME280;54902;50.420;18.854;2024-02-16T02:06:16;101765.72;;;8.42;77.26
55044;BME280;54902;50.420;18.854;2024-02-16T02:06:47;101764.91;;;8.40;77.27
55044;BME280;54902;50.420;18.854;2024-02-16T02:07:18;101765.88;;;8.39;77.26
55044;BME280;54902;50.420;18.854;2024-02-16T02:07:49;101763.25;;;8.37;77.25
55044;BME280;54902;50.420;18.854;2024-02-16T02:08:20;101766.07;;;8.36;77.26
55044;BME280;54902;50.420;18.854;2024-02-16T02:08:51;101760.63;;;8.36;77.25
55044;BME280;54902;50.420;18.854;2024-02-16T02:09:22;101761.59;;;8.35;77.27
55044;BME280;54902;50.420;18.854;2024-02-16T02:09:53;101754.48;;;8.32;77.28
55044;BME280;54902;50.420;18.854;2024-02-16T02:10:24;101763.54;;;8.33;77.27
55044;BME280;54902;50.420;18.854;2024-02-16T02:10:55;101754.67;;;8.29;77.28
55044;BME280;54902;50.420;18.854;2024-02-16T02:11:26;101761.97;;;8.29;77.28
55044;BME280;54902;50.420;18.854;2024-02-16T02:11:58;101757.48;;;8.28;77.29
55044;BME280;54902;50.420;18.854;2024-02-16T02:12:29;101761.17;;;8.27;77.28
55044;BME280;54902;50.420;18.854;2024-02-16T02:13:00;101764.78;;;8.27;77.30
55044;BME280;54902;50.420;18.854;2024-02-16T02:13:31;101763.13;;;8.25;77.29
55044;BME280;54902;50.420;18.854;2024-02-16T02:14:02;101764.94;;;8.24;77.29
55044;BME280;54902;50.420;18.854;2024-02-16T02:14:33;101757.73;;;8.23;77.29
55044;BME280;54902;50.420;18.854;2024-02-16T02:15:04;101766.89;;;8.22;77.30
55044;BME280;54902;50.420;18.854;2024-02-16T02:15:35;101756.10;;;8.21;77.31
55044;BME280;54902;50.420;18.854;2024-02-16T02:16:07;101745.65;;;8.13;77.30
55044;BME280;54902;50.420;18.854;2024-02-16T02:16:39;101762.50;;;8.20;77.31
55044;BME280;54902;50.420;18.854;2024-02-16T02:17:10;101761.70;;;8.18;77.33
55044;BME280;54902;50.420;18.854;2024-02-16T02:17:41;101765.41;;;8.17;77.33
55044;BME280;54902;50.420;18.854;2024-02-16T02:18:12;101757.30;;;8.15;77.32
55044;BME280;54902;50.420;18.854;2024-02-16T02:18:43;101757.30;;;8.15;77.33
55044;BME280;54902;50.420;18.854;2024-02-16T02:19:14;101761.88;;;8.15;77.35
55044;BME280;54902;50.420;18.854;2024-02-16T02:19:46;101760.12;;;8.14;77.35
55044;BME280;54902;50.420;18.854;2024-02-16T02:20:17;101771.07;;;8.12;77.33
55044;BME280;54902;50.420;18.854;2024-02-16T02:20:48;101762.91;;;8.12;77.34
55044;BME280;54902;50.420;18.854;2024-02-16T02:21:19;101759.31;;;8.12;77.35
55044;BME280;54902;50.420;18.854;2024-02-16T02:21:50;101763.09;;;8.09;77.37
55044;BME280;54902;50.420;18.854;2024-02-16T02:22:21;101765.72;;;8.11;77.36
55044;BME280;54902;50.420;18.854;2024-02-16T02:22:52;101758.61;;;8.08;77.36
55044;BME280;54902;50.420;18.854;2024-02-16T02:23:23;101764.91;;;8.09;77.37
55044;BME280;54902;50.420;18.854;2024-02-16T02:23:54;101764.15;;;8.07;77.37
55044;BME280;54902;50.420;18.854;2024-02-16T02:24:25;101765.11;;;8.06;77.37
55044;BME280;54902;50.420;18.854;2024-02-16T02:24:56;101765.11;;;8.06;77.37
55044;BME280;54902;50.420;18.854;2024-02-16T02:25:27;101760.62;;;8.05;77.38
55044;BME280;54902;50.420;18.854;2024-02-16T02:25:59;101760.62;;;8.05;77.38
55044;BME280;54902;50.420;18.854;2024-02-16T02:26:30;101764.33;;;8.04;77.38
55044;BME280;54902;50.420;18.854;2024-02-16T02:27:03;101758.09;;;8.02;77.40
55044;BME280;54902;50.420;18.854;2024-02-16T02:27:33;101761.70;;;8.03;77.41
55044;BME280;54902;50.420;18.854;2024-02-16T02:28:05;101759.95;;;8.02;77.42
55044;BME280;54902;50.420;18.854;2024-02-16T02:28:36;101764.48;;;8.01;77.42
55044;BME280;54902;50.420;18.854;2024-02-16T02:29:07;101759.14;;;8.00;77.43
55044;BME280;54902;50.420;18.854;2024-02-16T02:29:39;101760.99;;;7.99;77.42
55044;BME280;54902;50.420;18.854;2024-02-16T02:30:11;101750.20;;;7.98;77.43
55044;BME280;54902;50.420;18.854;2024-02-16T02:30:43;101753.79;;;7.98;77.42
55044;BME280;54902;50.420;18.854;2024-02-16T02:31:16;101749.30;;;7.97;77.43
55044;BME280;54902;50.420;18.854;2024-02-16T02:31:46;101756.60;;;7.97;77.43
55044;BME280;54902;50.420;18.854;2024-02-16T02:32:17;101755.73;;;7.96;77.44
55044;BME280;54902;50.420;18.854;2024-02-16T02:32:50;101751.26;;;7.95;77.45
55044;BME280;54902;50.420;18.854;2024-02-16T02:33:21;101752.22;;;7.94;77.46
55044;BME280;54902;50.420;18.854;2024-02-16T02:33:52;101759.51;;;7.94;77.46
55044;BME280;54902;50.420;18.854;2024-02-16T02:34:24;101755.88;;;7.93;77.44
55044;BME280;54902;50.420;18.854;2024-02-16T02:34:56;101754.16;;;7.92;77.46
55044;BME280;54902;50.420;18.854;2024-02-16T02:35:27;101759.65;;;7.91;77.47
55044;BME280;54902;50.420;18.854;2024-02-16T02:35:57;101750.63;;;7.90;77.47
55044;BME280;54902;50.420;18.854;2024-02-16T02:36:28;101763.38;;;7.90;77.48
55044;BME280;54902;50.420;18.854;2024-02-16T02:36:59;101758.89;;;7.89;77.47
55044;BME280;54902;50.420;18.854;2024-02-16T02:37:30;101757.12;;;7.88;77.48
55044;BME280;54902;50.420;18.854;2024-02-16T02:38:01;101752.64;;;7.87;77.49
55044;BME280;54902;50.420;18.854;2024-02-16T02:38:33;101754.50;;;7.86;77.49
55044;BME280;54902;50.420;18.854;2024-02-16T02:39:05;101756.35;;;7.86;77.49
55044;BME280;54902;50.420;18.854;2024-02-16T02:39:37;101751.87;;;7.85;77.48
55044;BME280;54902;50.420;18.854;2024-02-16T02:40:08;101750.97;;;7.84;77.47
55044;BME280;54902;50.420;18.854;2024-02-16T02:40:39;101758.27;;;7.84;77.50
55044;BME280;54902;50.420;18.854;2024-02-16T02:41:11;101752.05;;;7.82;77.50
55044;BME280;54902;50.420;18.854;2024-02-16T02:41:42;101758.36;;;7.82;77.49
55044;BME280;54902;50.420;18.854;2024-02-16T02:42:13;101757.55;;;7.80;77.49
55044;BME280;54902;50.420;18.854;2024-02-16T02:42:44;101754.83;;;7.80;77.50
55044;BME280;54902;50.420;18.854;2024-02-16T02:43:15;101762.99;;;7.80;77.50
55044;BME280;54902;50.420;18.854;2024-02-16T02:43:49;101762.22;;;7.78;77.50
55044;BME280;54902;50.420;18.854;2024-02-16T02:44:20;101755.02;;;7.77;77.51